Decoded Metar for KOSH (OSHKOSH in WI, USA) (IATA:OSH) | Meteo·Mobile Aviation Weather
aviador You're here:

KOSH Decoded Metar

OSHKOSH in WI, USA
Report Time2019-04-20 09:53:00
UTC Time2019-04-20 10:51:43
Flight Rules vfr VFR
Wind360° at 03 kt
W.Decomp.*RWY 36: 3.0 kt HW 0.2 kt RCW
RWY 04: 2.4 kt HW 1.8 kt LCW
RWY 31: 1.8 kt HW 2.4 kt RCW
RWY 09: 0.2 kt HW 3 kt LCW
Visibility9999 m
Phenomena:N/A
Clouds:N/A
Expected CloudBase > 2,000 ft AGL from Temp-Dew spread
CeilingNone
Temp01°C (ISA -12)
Dew Point-4°C (70% RH)
AAT-2.6°C
QNH1013 hPa
Density Alt-627 ft
Elevation814 ft
Report Wrong Elevation
Raw Report
KOSH 200953Z AUTO 36003KT 10SM CLR 01/M04 A2991 RMK AO2 SLP133
T00111044=

Extra information for KOSH:More info

Metar Taf Metar & Taf Last 4 Metars F.Rules Stats Wind Profile Meteogram Temp Stats Airport Information Weather charts Add Link Nearby VenuesMetar ALERT Operation Metar Decoded Social comments

AIRNAV info for KOSH
EAA Airventure